Advance, NC (27006)

1:19 AM EDT on September 17, 2014 (GMT -0400)
New Meadowbrook | Change Station
CLOSE
Current Station
Personal Weather Station
Location: Clemmons, NC
Elevation: 778 ft
Nearby Weather Stations

Elev 778 ft 36.02 °N, 80.41 °W | Updated 17 seconds ago

Overcast
Overcast
66.4 °F
Feels Like 66.4 °F
N
0.0
Wind Variable Wind from SE
Gusts 0.0 mph

Today
High -- | Low -- °F
--% Chance of Precip.
Yesterday
High -- | Low -- °F
Precip. -- in
7:05 AM 7:26 PM
Last Quarter, 39% visible
Pressure 29.99 in
Visibility 10.0 miles
Clouds Few 5500 ft
Scattered Clouds 8000 ft
Dew Point 66 °F
Humidity 99%
Rainfall 0.00 in
Snow Depth Not available.
UV 0 out of 12
Pollen 7.20 out of 12
Ozone Good
PM2.5 Good
Flu Activity Not available.
METAR KINT 170454Z AUTO 02006KT 10SM FEW055 SCT080 19/18 A3002 RMK AO2 SLP153 T01940178 402940194

More Conditions Fewer Conditions

Pressure 29.99 in
Visibility 10.0 miles
Clouds Few 5500 ft
Scattered Clouds 8000 ft
Dew Point 66 °F
Humidity 99%
Rainfall 0.00 in
Snow Depth Not available.
UV 0 out of 12
Pollen 7.20 out of 12
Ozone Good
PM2.5 Good
Flu Activity Not available.
METAR KINT 170454Z AUTO 02006KT 10SM FEW055 SCT080 19/18 A3002 RMK AO2 SLP153 T01940178 402940194

More Conditions Fewer Conditions

10-Day Weather Forecast

Almanac

Astronomy

Sep. 17, 2014 Rise Set
Actual Time 7:05 AM EDT 7:26 PM EDT
Civil Twilight 6:40 AM EDT 7:51 PM EDT
Nautical Twilight 6:10 AM EDT 8:21 PM EDT
Astronomical Twilight 5:39 AM EDT 8:52 PM EDT
Moon 1:12 AM EDT 3:27 PM EDT
Length of Visible Light 13h 11m
Length of Day
12h 20m
Tomorrow will be 2m 16s shorter.
Last Quarter, 39% of the Moon is Illuminated
Today
Last Quarter
Sep 24
New
Oct 1
First Quarter
Oct 8
Full
Oct 15
Last Quarter

Today's Extremes

State Highs State Lows

Community

WunderPhotos

Upload Photos

1,753,968 photos uploaded!

Nearby

Air Quality

  Air Quality AQ Index Pollutant
Yesterday Good
PM2.5
Yesterday Good
OZONE
Current Good
PM2.5
Current Good
OZONE
Tuesday Good
OZONE
Tuesday Good
PM2.5
Wednesday Good
OZONE
Wednesday Good
PM2.5
Thursday Good
OZONE
Thursday Good
PM2.5
Friday Good
OZONE
Friday Good
PM2.5

Snow Depth

Station Depth Elevation
No new snow has been reported.

Earthquake Activity

City Distance Mag. Time & Date
No recent earthquake activity has been reported nearby.
Minimum magnitude displayed is 2.5.

Coastal Water Temperatures

Place Temperature
No Stations Reporting

Nearby Weather Stations